الصفحة الرئيسية
METAR-TAF:

METAR-TAF

مطار :

مطار الملك عبد العزيز الدولي

جدة, السعودية

دائرة عرض: 21-42N, خط طول: 039-11E, ارتفاع: 15 متر

مراقبة الطقس الحالي

تاريخ ووقت الإصدار 22 دقيقة قبل الساعة 00:00UTC
ريح 4 عقدة من الشمال/الشمال الغربي
درجة الحرارة 31°درجة مئوية
الرطوبة 55%
ضغط 1001 hPa
الرؤية 10 كم أو أكثر
غيوم قليلة على ارتفاع 4000 قدم

METAR: OEJN 180000Z 33004KT 9999 FEW040 31/21 Q1001 NOSIG

زمن: 03:22 (00:22 UTC)

توقعات

تاريخ ووقت الإصدار 1ساعة و 22 دقيقة قبل الساعة 23:00UTC
التوقعات صالحة من18 الساعة 00 UTC إلى 19 الساعة 06 UTC
ريح 3 عقدةمن اتجاهات متغيرة
الرؤية: 7000 متر
أصبح
من 18 الساعة 06 UTC إلى 18 الساعة 08 UTC
ريح 14 عقدة من الغرب
أصبح
من 18 الساعة 14 UTC إلى 18 الساعة 16 UTC
ريح 12 عقدة من الشمال

TAF: OEJN 172300Z 1800/1906 VRB03KT 7000 NSC BECMG 1806/1808 27014KT BECMG 1814/1816 35012KT

أرصاد الطقس والتوقعات من أكثر من 4000 مطار (تقارير الطقس للمطار METAR والتنبؤ بالطقس بالمطارTAF).

المحطات المتاحة هي النقط الصفراء والحمراء على الخريطة.

حرك المؤشر فوق النقطة لمعرفة اسم المحطة.

ثم انقر لمعرفة أرصاد وتوقعات الطقس.

لتغيير الخارطة: اضغط على الأزرار الخضراء مع رمز الصليب الأسود للتكبير. على الزر الأخضر مع شرطة للتصغير، أو على الأسهم الخضراء للخرائط المجاورة.


METAR-TAF: